createdAt,value
2023-05-21T00:01:16.580Z,26.13
2023-05-21T00:05:34.352Z,21.47
2023-05-21T00:09:52.985Z,26.98
2023-05-21T00:14:11.975Z,26.70
2023-05-21T00:18:32.497Z,25.58
2023-05-21T00:22:53.189Z,26.47
2023-05-21T00:27:11.277Z,26.38
2023-05-21T00:31:30.227Z,28.05
2023-05-21T00:35:50.043Z,28.07
2023-05-21T00:40:09.794Z,27.52
2023-05-21T00:44:34.433Z,28.38
2023-05-21T00:48:55.029Z,27.10
2023-05-21T00:53:15.524Z,28.10
2023-05-21T00:57:33.440Z,31.67
2023-05-21T01:01:56.154Z,24.67
2023-05-21T01:06:16.308Z,29.27
2023-05-21T01:10:36.079Z,27.80
2023-05-21T01:14:55.267Z,29.10
2023-05-21T01:19:18.689Z,30.20
2023-05-21T01:23:38.129Z,27.75
2023-05-21T01:27:57.979Z,28.40
2023-05-21T01:32:24.476Z,28.37
2023-05-21T01:36:48.767Z,29.30
2023-05-21T01:41:13.653Z,27.67
2023-05-21T01:45:34.536Z,30.73
2023-05-21T01:49:54.831Z,30.13
2023-05-21T01:54:12.800Z,30.02
2023-05-21T01:58:32.270Z,33.03
2023-05-21T02:02:52.837Z,29.30
2023-05-21T02:07:10.306Z,31.08
2023-05-21T02:11:28.331Z,34.00
2023-05-21T02:15:48.409Z,30.00
2023-05-21T02:20:11.564Z,31.75
2023-05-21T02:24:31.921Z,29.20
2023-05-21T02:28:49.823Z,31.25
2023-05-21T02:33:09.860Z,32.03
2023-05-21T02:37:29.055Z,30.63
2023-05-21T02:41:47.500Z,30.85
2023-05-21T02:46:08.617Z,30.07
2023-05-21T02:50:27.615Z,32.22
2023-05-21T02:54:50.732Z,36.08
2023-05-21T02:59:08.445Z,35.17
2023-05-21T03:03:29.848Z,35.67
2023-05-21T03:07:49.058Z,32.78
2023-05-21T03:12:09.405Z,33.75
2023-05-21T03:16:26.893Z,35.00
2023-05-21T03:20:45.487Z,38.45
2023-05-21T03:25:04.419Z,34.90
2023-05-21T03:29:24.232Z,35.77
2023-05-21T03:33:42.201Z,38.72
2023-05-21T03:38:15.962Z,33.13
2023-05-21T03:42:34.928Z,34.73
2023-05-21T03:46:54.696Z,35.28
2023-05-21T03:51:16.053Z,32.38
2023-05-21T03:55:34.243Z,32.78
2023-05-21T03:59:53.423Z,34.63
2023-05-21T04:04:13.082Z,31.77
2023-05-21T04:08:31.297Z,33.10
2023-05-21T04:12:52.530Z,30.97
2023-05-21T04:17:14.918Z,32.13
2023-05-21T04:21:34.525Z,33.72
2023-05-21T04:25:53.034Z,31.10
2023-05-21T04:30:13.941Z,32.00
2023-05-21T04:34:36.348Z,30.25
2023-05-21T04:38:56.234Z,28.77
2023-05-21T04:43:14.085Z,31.80
2023-05-21T04:47:35.490Z,30.08
2023-05-21T04:51:57.754Z,30.25
2023-05-21T04:56:18.567Z,29.63
2023-05-21T05:00:39.043Z,30.77
2023-05-21T05:04:59.973Z,28.45
2023-05-21T05:09:19.061Z,31.47
2023-05-21T05:13:38.774Z,28.48
2023-05-21T05:17:57.039Z,29.40
2023-05-21T05:22:14.904Z,27.48
2023-05-21T05:26:34.824Z,27.27
2023-05-21T05:30:54.066Z,30.30
2023-05-21T05:35:18.323Z,28.77
2023-05-21T05:39:36.338Z,27.83
2023-05-21T05:43:58.877Z,24.15
2023-05-21T05:48:22.029Z,27.40
2023-05-21T05:52:39.929Z,23.97
2023-05-21T05:56:58.166Z,23.48
2023-05-21T06:01:22.755Z,23.30
2023-05-21T06:05:40.308Z,22.83
2023-05-21T06:09:58.334Z,21.50
2023-05-21T06:14:16.213Z,24.73
2023-05-21T06:18:35.765Z,22.13
2023-05-21T06:22:55.335Z,22.93
2023-05-21T06:27:13.527Z,23.38
2023-05-21T06:31:32.913Z,21.42
2023-05-21T06:35:54.139Z,23.03
2023-05-21T06:40:14.060Z,22.38
2023-05-21T06:44:31.734Z,24.55
2023-05-21T06:49:07.138Z,23.67
2023-05-21T06:53:27.656Z,23.97
2023-05-21T06:57:47.485Z,22.48
2023-05-21T07:02:05.673Z,21.67
2023-05-21T07:06:24.040Z,22.90
2023-05-21T07:10:44.010Z,20.35
2023-05-21T07:15:02.699Z,22.25
2023-05-21T07:19:21.031Z,18.80
2023-05-21T07:23:42.160Z,20.95
2023-05-21T07:28:01.459Z,19.63
2023-05-21T07:32:21.832Z,18.80
2023-05-21T07:36:42.285Z,17.13
2023-05-21T07:41:00.488Z,18.67
2023-05-21T07:45:20.357Z,15.60
2023-05-21T07:49:39.498Z,17.93
2023-05-21T07:53:57.714Z,17.13
2023-05-21T07:58:25.001Z,18.33
2023-05-21T08:02:47.442Z,17.50
2023-05-21T08:07:07.158Z,17.65
2023-05-21T08:11:25.134Z,17.80
2023-05-21T08:15:43.664Z,15.50
2023-05-21T08:20:07.300Z,17.23
2023-05-21T08:24:28.649Z,16.55
2023-05-21T08:28:47.211Z,17.08
2023-05-21T08:33:04.876Z,15.87
2023-05-21T08:37:27.192Z,16.27
2023-05-21T08:42:08.957Z,17.48
2023-05-21T08:46:30.187Z,16.30
2023-05-21T08:50:48.374Z,14.63
2023-05-21T08:55:13.780Z,17.37
2023-05-21T08:59:33.067Z,14.60
2023-05-21T09:04:04.920Z,14.82
2023-05-21T09:08:32.569Z,16.33
2023-05-21T09:12:56.533Z,15.83
2023-05-21T09:17:16.017Z,15.57
2023-05-21T09:21:37.172Z,16.55
2023-05-21T09:26:13.840Z,15.77
2023-05-21T09:30:40.228Z,15.02
2023-05-21T09:34:59.303Z,15.52
2023-05-21T09:39:29.853Z,15.20
2023-05-21T09:43:50.976Z,14.20
2023-05-21T09:48:09.798Z,15.02
2023-05-21T09:52:30.556Z,16.20
2023-05-21T09:56:47.726Z,14.97
2023-05-21T10:01:06.082Z,14.32
2023-05-21T10:05:28.767Z,14.02
2023-05-21T10:09:49.410Z,15.17
2023-05-21T10:14:13.193Z,12.80
2023-05-21T10:18:34.530Z,14.35
2023-05-21T10:22:56.791Z,14.03
2023-05-21T10:27:15.699Z,14.15
2023-05-21T10:31:33.816Z,17.23
2023-05-21T10:35:53.266Z,14.98
2023-05-21T10:40:15.680Z,12.30
2023-05-21T10:44:45.717Z,15.35
2023-05-21T10:49:28.277Z,13.52
2023-05-21T10:54:14.927Z,13.00
2023-05-21T10:59:08.035Z,13.05
2023-05-21T11:03:30.870Z,12.93
2023-05-21T11:07:53.948Z,11.90
2023-05-21T11:12:14.585Z,14.15
2023-05-21T11:16:37.574Z,13.35
2023-05-21T11:20:55.468Z,12.88
2023-05-21T11:25:13.587Z,13.27
2023-05-21T11:29:42.051Z,12.63
2023-05-21T11:34:13.669Z,14.25
2023-05-21T11:38:35.376Z,16.03
2023-05-21T11:42:55.303Z,13.02
2023-05-21T11:47:15.078Z,12.23
2023-05-21T11:51:34.347Z,15.57
2023-05-21T11:55:57.685Z,13.10
2023-05-21T12:00:18.449Z,14.20
2023-05-21T12:04:38.680Z,13.18
2023-05-21T12:09:01.511Z,14.20
2023-05-21T12:13:22.474Z,14.38
2023-05-21T12:17:42.693Z,13.68
2023-05-21T12:22:02.718Z,13.37
2023-05-21T12:26:25.434Z,12.68
2023-05-21T12:30:45.560Z,12.38
2023-05-21T12:35:03.748Z,12.40
2023-05-21T12:39:21.668Z,13.05
2023-05-21T12:43:41.138Z,11.93
2023-05-21T12:48:03.212Z,13.73
2023-05-21T12:52:21.844Z,13.07
2023-05-21T12:56:45.977Z,12.15
2023-05-21T13:01:08.298Z,14.00
2023-05-21T13:05:28.569Z,14.27
2023-05-21T13:09:46.647Z,13.00
2023-05-21T13:14:04.492Z,14.23
2023-05-21T13:18:24.080Z,11.20
2023-05-21T13:22:46.724Z,14.20
2023-05-21T13:27:04.982Z,12.90
2023-05-21T13:31:22.921Z,13.05
2023-05-21T13:35:43.334Z,12.73
2023-05-21T13:40:02.056Z,15.43
2023-05-21T13:44:20.327Z,13.48
2023-05-21T13:48:38.422Z,15.43
2023-05-21T13:52:58.110Z,11.95
2023-05-21T13:57:17.813Z,12.10
2023-05-21T14:01:35.657Z,12.30
2023-05-21T14:05:53.766Z,10.93
2023-05-21T14:10:14.071Z,10.82
2023-05-21T14:14:33.430Z,11.98
2023-05-21T14:18:50.932Z,11.97
2023-05-21T14:23:09.437Z,10.95
2023-05-21T14:27:28.332Z,11.13
2023-05-21T14:31:48.655Z,11.13
2023-05-21T14:36:06.842Z,12.43
2023-05-21T14:40:24.096Z,11.52
2023-05-21T14:44:43.829Z,11.60
2023-05-21T14:49:03.808Z,12.07
2023-05-21T14:53:21.539Z,12.10
2023-05-21T14:57:39.552Z,13.68
2023-05-21T15:01:59.260Z,11.23
2023-05-21T15:06:18.668Z,13.55
2023-05-21T15:10:36.835Z,12.57
2023-05-21T15:14:54.860Z,12.20
2023-05-21T15:19:14.476Z,11.07
2023-05-21T15:23:33.956Z,11.15
2023-05-21T15:27:51.997Z,11.83
2023-05-21T15:32:10.368Z,11.30
2023-05-21T15:36:29.383Z,11.60
2023-05-21T15:40:49.437Z,10.90
2023-05-21T15:45:08.181Z,12.83
2023-05-21T15:49:25.648Z,11.07
2023-05-21T15:53:44.896Z,12.27
2023-05-21T15:58:05.556Z,12.60
2023-05-21T16:02:25.876Z,10.90
2023-05-21T16:06:43.869Z,11.50
2023-05-21T16:11:03.323Z,11.63
2023-05-21T16:15:22.980Z,12.57
2023-05-21T16:19:40.824Z,11.18
2023-05-21T16:23:59.154Z,14.65
2023-05-21T16:28:18.555Z,15.53
2023-05-21T16:32:39.593Z,13.68
2023-05-21T16:36:59.656Z,11.90
2023-05-21T16:41:17.373Z,16.07
2023-05-21T16:45:41.438Z,13.20
2023-05-21T16:50:00.877Z,14.88
2023-05-21T16:54:21.121Z,14.23
2023-05-21T16:58:39.180Z,11.10
2023-05-21T17:02:58.627Z,10.75
2023-05-21T17:07:18.493Z,10.40
2023-05-21T17:11:36.382Z,9.43
2023-05-21T17:15:54.093Z,12.05
2023-05-21T17:20:14.555Z,11.68
2023-05-21T17:24:33.445Z,10.60
2023-05-21T17:28:51.613Z,11.50
2023-05-21T17:33:13.159Z,11.63
2023-05-21T17:37:32.067Z,12.53
2023-05-21T17:41:54.895Z,12.35
2023-05-21T17:46:16.659Z,12.65
2023-05-21T17:50:34.276Z,12.15
2023-05-21T17:54:53.335Z,12.03
2023-05-21T17:59:13.511Z,14.02
2023-05-21T18:03:31.705Z,12.98
2023-05-21T18:07:49.292Z,12.13
2023-05-21T18:12:09.378Z,12.68
2023-05-21T18:16:31.004Z,12.75
2023-05-21T18:20:51.267Z,15.17
2023-05-21T18:25:13.608Z,12.50
2023-05-21T18:29:33.764Z,13.70
2023-05-21T18:33:55.885Z,13.40
2023-05-21T18:38:14.368Z,13.03
2023-05-21T18:42:35.889Z,13.18
2023-05-21T18:46:55.702Z,17.05
2023-05-21T18:51:17.677Z,13.97
2023-05-21T18:55:36.369Z,13.20
2023-05-21T18:59:57.809Z,14.68
2023-05-21T19:04:19.967Z,13.67
2023-05-21T19:08:39.066Z,13.25
2023-05-21T19:12:57.382Z,13.70
2023-05-21T19:17:15.168Z,13.75
2023-05-21T19:21:46.097Z,13.93
2023-05-21T19:26:04.957Z,14.43
2023-05-21T19:30:24.782Z,16.08
2023-05-21T19:34:42.709Z,14.70
2023-05-21T19:39:01.752Z,12.75
2023-05-21T19:43:23.402Z,13.15
2023-05-21T19:47:44.513Z,12.17
2023-05-21T19:52:04.228Z,14.20
2023-05-21T19:56:22.452Z,14.20
2023-05-21T20:00:49.045Z,13.00
2023-05-21T20:05:11.160Z,11.87
2023-05-21T20:09:32.220Z,13.43
2023-05-21T20:13:53.395Z,11.07
2023-05-21T20:18:12.986Z,12.60
2023-05-21T20:22:33.483Z,13.20
2023-05-21T20:26:55.368Z,13.48
2023-05-21T20:31:14.443Z,13.13
2023-05-21T20:35:34.076Z,12.38
2023-05-21T20:39:58.006Z,12.30
2023-05-21T20:44:21.269Z,12.35
2023-05-21T20:48:39.678Z,12.63
2023-05-21T20:53:02.257Z,13.57
2023-05-21T20:57:22.429Z,12.23
2023-05-21T21:01:42.675Z,14.67
2023-05-21T21:06:01.179Z,12.13
2023-05-21T21:10:20.734Z,11.77
2023-05-21T21:14:39.423Z,11.80
2023-05-21T21:19:02.808Z,11.48
2023-05-21T21:23:21.878Z,13.38
2023-05-21T21:27:42.917Z,13.27
2023-05-21T21:32:00.929Z,14.10
2023-05-21T21:36:19.217Z,12.35
2023-05-21T21:40:37.480Z,11.95
2023-05-21T21:44:56.797Z,12.97
2023-05-21T21:49:17.278Z,13.63
2023-05-21T21:53:37.547Z,12.48
2023-05-21T21:57:57.994Z,11.13
2023-05-21T22:02:19.836Z,11.23
2023-05-21T22:06:39.065Z,11.98
2023-05-21T22:10:58.902Z,12.95
2023-05-21T22:15:22.995Z,11.67
2023-05-21T22:19:43.021Z,12.52
2023-05-21T22:24:02.165Z,12.23
2023-05-21T22:28:22.431Z,13.60
2023-05-21T22:32:44.636Z,12.73
2023-05-21T22:37:06.757Z,13.07
2023-05-21T22:41:27.088Z,13.20
2023-05-21T22:45:44.801Z,15.00
2023-05-21T22:50:04.371Z,13.40
2023-05-21T22:54:25.663Z,12.63
2023-05-21T22:58:45.286Z,14.03
2023-05-21T23:03:06.806Z,13.93
2023-05-21T23:07:24.424Z,14.68
2023-05-21T23:11:43.944Z,12.93
2023-05-21T23:16:03.953Z,12.70
2023-05-21T23:20:22.839Z,11.55
2023-05-21T23:24:42.455Z,12.33
2023-05-21T23:29:02.467Z,13.75
2023-05-21T23:33:24.388Z,14.50
2023-05-21T23:37:42.959Z,12.85
2023-05-21T23:42:00.897Z,12.80
2023-05-21T23:46:21.074Z,14.02
2023-05-21T23:50:40.692Z,13.57
2023-05-21T23:54:59.125Z,14.83
2023-05-21T23:59:18.360Z,12.90
